Time;durP1;ratioP1;P1;durP2;ratioP2;P2;SDS_P1;SDS_P2;PMS_P1;PMS_P2;Temp;Humidity;BMP_temperature;BMP_pressure;BME280_temperature;BME280_humidity;BME280_pressure;Samples;Min_cycle;Max_cycle;Signal;HPM_P1;HPM_P2
2021/06/05 00:01:27;;;;;;;4.40;4.00;;;;;;;;;;5115090;28;20194;-81
2021/06/05 00:03:55;;;;;;;3.67;3.38;;;;;;;;;;5115151;28;20241;-82
2021/06/05 00:06:26;;;;;;;4.05;3.75;;;;;;;;;;5114338;28;20203;-82
2021/06/05 00:08:54;;;;;;;3.05;2.85;;;;;;;;;;5114471;28;20204;-82
2021/06/05 00:11:23;;;;;;;3.90;3.60;;;;;;;;;;5114950;28;20191;-82
2021/06/05 00:13:56;;;;;;;4.47;4.15;;;;;;;;;;5114829;28;20533;-82
2021/06/05 00:16:27;;;;;;;4.07;3.22;;;;;;;;;;5114262;28;20233;-82
2021/06/05 00:18:54;;;;;;;3.83;3.53;;;;;;;;;;5114450;28;20584;-82
2021/06/05 00:21:25;;;;;;;3.47;3.17;;;;;;;;;;5113575;28;20204;-81
2021/06/05 00:23:52;;;;;;;3.83;3.10;;;;;;;;;;5114269;28;20211;-82
2021/06/05 00:26:20;;;;;;;3.90;3.70;;;;;;;;;;5114034;28;20204;-82
2021/06/05 00:28:47;;;;;;;4.20;3.47;;;;;;;;;;5113903;28;20580;-82
2021/06/05 00:31:14;;;;;;;3.22;3.03;;;;;;;;;;5114263;28;20708;-82
2021/06/05 00:33:41;;;;;;;4.30;3.90;;;;;;;;;;5114273;28;20199;-82
2021/06/05 00:36:10;;;;;;;3.65;3.35;;;;;;;;;;5113384;28;20199;-81
2021/06/05 00:38:39;;;;;;;4.78;3.00;;;;;;;;;;5114009;28;20261;-82
2021/06/05 00:41:09;;;;;;;4.47;3.22;;;;;;;;;;5113656;28;20196;-81
2021/06/05 00:43:40;;;;;;;3.78;3.47;;;;;;;;;;5113654;28;20252;-82
2021/06/05 00:46:07;;;;;;;4.75;3.95;;;;;;;;;;5114293;28;20665;-82
2021/06/05 00:48:34;;;;;;;3.15;2.95;;;;;;;;;;5113362;28;20200;-81
2021/06/05 00:51:01;;;;;;;4.32;3.42;;;;;;;;;;5114169;28;20207;-81
2021/06/05 00:53:29;;;;;;;2.95;2.75;;;;;;;;;;5113304;28;20597;-82
2021/06/05 00:56:03;;;;;;;2.85;2.65;;;;;;;;;;5113751;28;20223;-81
2021/06/05 00:58:31;;;;;;;3.03;2.83;;;;;;;;;;5113966;28;20272;-81
2021/06/05 01:01:02;;;;;;;2.97;2.78;;;;;;;;;;5113640;28;20225;-81
2021/06/05 01:03:29;;;;;;;3.25;2.75;;;;;;;;;;5113195;28;20235;-82
2021/06/05 01:06:02;;;;;;;3.42;2.60;;;;;;;;;;5113893;28;20276;-82
2021/06/05 01:08:34;;;;;;;3.30;3.10;;;;;;;;;;5113911;28;20271;-81
2021/06/05 01:11:09;;;;;;;3.33;3.00;;;;;;;;;;5113436;28;20200;-81
2021/06/05 01:13:42;;;;;;;3.05;2.80;;;;;;;;;;5113219;28;20234;-82
2021/06/05 01:16:16;;;;;;;5.40;3.17;;;;;;;;;;5114064;28;20199;-82
2021/06/05 01:18:49;;;;;;;3.30;3.10;;;;;;;;;;5113922;28;20249;-82
2021/06/05 01:21:55;;;;;;;3.10;2.80;;;;;;;;;;5113794;28;20208;-82
2021/06/05 01:24:45;;;;;;;5.72;2.85;;;;;;;;;;5089142;28;20223;-82
2021/06/05 01:27:17;;;;;;;3.33;2.95;;;;;;;;;;5113706;28;20195;-82
2021/06/05 01:29:50;;;;;;;3.03;2.83;;;;;;;;;;5113866;28;20211;-82
2021/06/05 01:32:18;;;;;;;3.22;2.75;;;;;;;;;;5116324;28;20626;-82
2021/06/05 01:34:48;;;;;;;3.55;3.00;;;;;;;;;;5117129;28;20242;-81
2021/06/05 01:37:16;;;;;;;3.35;3.08;;;;;;;;;;5117483;28;20574;-81
2021/06/05 01:39:46;;;;;;;3.00;2.80;;;;;;;;;;5117513;28;20200;-81
2021/06/05 01:42:17;;;;;;;3.75;3.30;;;;;;;;;;5117499;28;20204;-82
2021/06/05 01:44:46;;;;;;;4.45;3.28;;;;;;;;;;5117138;28;20220;-81
2021/06/05 01:47:14;;;;;;;3.78;3.45;;;;;;;;;;5116947;28;20196;-82
2021/06/05 01:49:41;;;;;;;4.85;3.58;;;;;;;;;;5117501;28;20199;-82
2021/06/05 01:52:12;;;;;;;4.45;4.05;;;;;;;;;;5117711;28;20207;-82
2021/06/05 01:54:43;;;;;;;4.32;3.70;;;;;;;;;;5117168;28;20223;-82
2021/06/05 01:57:15;;;;;;;3.72;3.50;;;;;;;;;;5117007;28;20690;-82
2021/06/05 01:59:43;;;;;;;4.15;3.30;;;;;;;;;;5117379;28;20195;-82
2021/06/05 02:02:10;;;;;;;4.60;4.20;;;;;;;;;;5116573;28;20199;-81
2021/06/05 02:04:38;;;;;;;5.22;4.82;;;;;;;;;;5115587;28;20223;-81
2021/06/05 02:07:06;;;;;;;6.38;4.45;;;;;;;;;;5116009;28;20205;-82
2021/06/05 02:09:33;;;;;;;4.80;4.40;;;;;;;;;;5116953;28;20208;-81
2021/06/05 02:12:05;;;;;;;5.50;5.00;;;;;;;;;;5117472;28;20260;-81
2021/06/05 02:14:36;;;;;;;5.88;5.38;;;;;;;;;;5116934;28;20238;-82
2021/06/05 02:17:06;;;;;;;5.75;4.97;;;;;;;;;;5115824;28;20244;-82
2021/06/05 02:19:39;;;;;;;5.80;5.30;;;;;;;;;;5116006;28;20203;-82
2021/06/05 02:22:12;;;;;;;5.60;5.15;;;;;;;;;;5115971;28;20202;-82
2021/06/05 02:24:43;;;;;;;4.78;4.38;;;;;;;;;;5115579;28;20215;-81
2021/06/05 02:27:11;;;;;;;3.85;3.55;;;;;;;;;;5116148;28;20206;-82
2021/06/05 02:29:41;;;;;;;3.58;3.38;;;;;;;;;;5115495;28;20191;-82
2021/06/05 02:32:11;;;;;;;2.80;2.60;;;;;;;;;;5115541;28;20208;-82
2021/06/05 02:34:40;;;;;;;3.85;3.15;;;;;;;;;;5114978;28;20528;-82
2021/06/05 02:37:11;;;;;;;2.95;2.72;;;;;;;;;;5115241;28;20264;-82
2021/06/05 02:39:39;;;;;;;3.05;2.33;;;;;;;;;;5115778;28;20196;-82
2021/06/05 02:42:09;;;;;;;3.10;2.92;;;;;;;;;;5114977;28;20299;-82
2021/06/05 02:44:36;;;;;;;2.72;2.40;;;;;;;;;;5114214;28;20226;-81
2021/06/05 02:47:10;;;;;;;2.72;2.53;;;;;;;;;;5115157;28;20231;-82
2021/06/05 02:49:38;;;;;;;2.53;2.38;;;;;;;;;;5115175;28;20730;-82
2021/06/05 02:52:09;;;;;;;2.33;2.22;;;;;;;;;;5115478;28;20202;-82
2021/06/05 02:54:38;;;;;;;2.53;2.33;;;;;;;;;;5115225;28;20215;-82
2021/06/05 02:57:07;;;;;;;2.85;2.65;;;;;;;;;;5114994;28;20200;-82
2021/06/05 02:59:34;;;;;;;3.78;3.05;;;;;;;;;;5114392;28;20203;-82
2021/06/05 03:02:01;;;;;;;2.85;2.65;;;;;;;;;;5114601;28;20553;-82
2021/06/05 03:04:29;;;;;;;2.60;2.40;;;;;;;;;;5114761;28;20227;-82
2021/06/05 03:06:56;;;;;;;2.85;2.65;;;;;;;;;;5115207;28;20252;-82
2021/06/05 03:09:23;;;;;;;3.10;2.90;;;;;;;;;;5114943;28;20304;-82
2021/06/05 03:11:51;;;;;;;2.38;2.15;;;;;;;;;;5114643;28;20200;-82
2021/06/05 03:14:18;;;;;;;2.55;2.35;;;;;;;;;;5114945;28;20238;-82
2021/06/05 03:16:45;;;;;;;3.17;2.80;;;;;;;;;;5114368;28;20665;-82
2021/06/05 03:19:12;;;;;;;3.13;2.92;;;;;;;;;;5114387;27;20709;-82
2021/06/05 03:21:40;;;;;;;3.28;2.97;;;;;;;;;;5114549;28;20264;-82
2021/06/05 03:24:08;;;;;;;3.50;3.13;;;;;;;;;;5114855;28;20235;-82
2021/06/05 03:26:36;;;;;;;3.38;3.08;;;;;;;;;;5114721;28;20196;-82
2021/06/05 03:29:03;;;;;;;3.65;3.45;;;;;;;;;;5114463;28;20203;-82
2021/06/05 03:31:30;;;;;;;3.03;2.83;;;;;;;;;;5114546;28;20729;-82
2021/06/05 03:33:57;;;;;;;3.15;2.95;;;;;;;;;;5114203;28;20592;-82
2021/06/05 03:36:24;;;;;;;3.03;2.83;;;;;;;;;;5114307;28;20526;-82
2021/06/05 03:38:52;;;;;;;5.07;4.68;;;;;;;;;;5113922;28;20645;-82
2021/06/05 03:41:19;;;;;;;4.72;4.22;;;;;;;;;;5114320;28;20204;-82
2021/06/05 03:43:46;;;;;;;5.63;4.70;;;;;;;;;;5114147;28;20203;-82
2021/06/05 03:46:13;;;;;;;5.85;4.75;;;;;;;;;;5114533;28;20245;-82
2021/06/05 03:48:40;;;;;;;5.22;4.80;;;;;;;;;;5114469;28;20476;-82
2021/06/05 03:51:08;;;;;;;5.82;5.22;;;;;;;;;;5114121;28;20196;-82
2021/06/05 03:53:35;;;;;;;7.78;6.20;;;;;;;;;;5114118;28;20576;-82
2021/06/05 03:56:04;;;;;;;7.03;6.32;;;;;;;;;;5113611;28;20735;-83
2021/06/05 03:58:38;;;;;;;6.90;6.30;;;;;;;;;;5114053;27;20229;-82
2021/06/05 04:01:06;;;;;;;7.50;6.10;;;;;;;;;;5114336;28;20191;-83
2021/06/05 04:03:33;;;;;;;6.43;5.78;;;;;;;;;;5113906;28;20240;-82
2021/06/05 04:06:00;;;;;;;5.30;4.90;;;;;;;;;;5113983;28;20225;-82
2021/06/05 04:08:27;;;;;;;6.97;5.80;;;;;;;;;;5114328;28;20476;-82
2021/06/05 04:10:54;;;;;;;5.78;5.38;;;;;;;;;;5113673;28;20210;-82
2021/06/05 04:13:22;;;;;;;8.40;7.00;;;;;;;;;;5113452;28;20202;-82
2021/06/05 04:15:49;;;;;;;6.85;6.25;;;;;;;;;;5114024;28;20223;-82
2021/06/05 04:18:21;;;;;;;5.57;5.10;;;;;;;;;;5113972;28;20220;-83
2021/06/05 04:20:48;;;;;;;6.22;5.70;;;;;;;;;;5113378;28;20646;-82
2021/06/05 04:23:15;;;;;;;6.60;6.10;;;;;;;;;;5115186;28;20222;-82
2021/06/05 04:25:42;;;;;;;6.78;6.18;;;;;;;;;;5114080;27;20311;-82
2021/06/05 04:28:14;;;;;;;6.70;5.35;;;;;;;;;;5113294;28;20199;-82
2021/06/05 04:30:44;;;;;;;6.05;5.55;;;;;;;;;;5113417;28;20195;-82
2021/06/05 04:33:13;;;;;;;6.30;5.70;;;;;;;;;;5113401;28;20199;-82
2021/06/05 04:35:40;;;;;;;6.65;5.72;;;;;;;;;;5113009;27;20607;-83
2021/06/05 04:38:07;;;;;;;8.23;6.05;;;;;;;;;;5113148;28;20219;-82
2021/06/05 04:40:34;;;;;;;7.03;6.38;;;;;;;;;;5113626;28;20202;-82
2021/06/05 04:43:01;;;;;;;7.80;7.18;;;;;;;;;;5113534;28;20277;-82
2021/06/05 04:45:29;;;;;;;8.20;7.40;;;;;;;;;;5113338;28;20223;-82
2021/06/05 04:47:57;;;;;;;10.40;7.50;;;;;;;;;;5113301;28;20207;-83
2021/06/05 04:50:28;;;;;;;7.80;7.00;;;;;;;;;;5113164;28;20692;-83
2021/06/05 04:52:56;;;;;;;7.72;7.10;;;;;;;;;;5113253;28;20200;-82
2021/06/05 04:55:23;;;;;;;8.48;7.70;;;;;;;;;;5113431;28;20234;-82
2021/06/05 04:57:52;;;;;;;9.50;7.68;;;;;;;;;;5113996;28;20716;-82
2021/06/05 05:00:24;;;;;;;8.45;7.50;;;;;;;;;;5115765;28;20200;-83
2021/06/05 05:02:51;;;;;;;8.88;7.95;;;;;;;;;;5113935;28;20230;-82
2021/06/05 05:05:20;;;;;;;8.00;6.97;;;;;;;;;;5113462;28;20302;-82
2021/06/05 05:07:47;;;;;;;13.10;8.07;;;;;;;;;;5117082;28;20669;-82
2021/06/05 05:10:17;;;;;;;38.80;8.82;;;;;;;;;;5117338;28;20609;-83
2021/06/05 05:12:44;;;;;;;17.42;7.90;;;;;;;;;;5117659;28;20248;-82
2021/06/05 05:15:12;;;;;;;7.88;7.18;;;;;;;;;;5117211;28;20223;-82
2021/06/05 05:17:39;;;;;;;8.52;7.82;;;;;;;;;;5116960;28;20204;-82
2021/06/05 05:20:09;;;;;;;56.38;10.85;;;;;;;;;;5117265;28;20219;-82
2021/06/05 05:22:40;;;;;;;8.80;8.00;;;;;;;;;;5116630;28;20673;-83
2021/06/05 05:25:09;;;;;;;28.30;8.77;;;;;;;;;;5116909;28;20219;-82
2021/06/05 05:27:37;;;;;;;8.35;7.53;;;;;;;;;;5117489;28;20241;-81
2021/06/05 05:30:07;;;;;;;8.98;7.82;;;;;;;;;;5116884;28;20187;-82
2021/06/05 05:32:34;;;;;;;8.70;7.78;;;;;;;;;;5116811;28;20509;-82
2021/06/05 05:35:02;;;;;;;13.45;7.85;;;;;;;;;;5116885;28;20269;-82
2021/06/05 05:37:29;;;;;;;11.35;8.02;;;;;;;;;;5117215;28;20208;-83
2021/06/05 05:39:57;;;;;;;8.15;7.45;;;;;;;;;;5116790;28;20220;-82
2021/06/05 05:42:24;;;;;;;8.05;7.03;;;;;;;;;;5116232;28;20199;-82
2021/06/05 05:44:50;;;;;;;7.65;7.05;;;;;;;;;;5116825;28;20219;-82
2021/06/05 05:47:17;;;;;;;11.13;6.82;;;;;;;;;;5116628;28;20199;-83
2021/06/05 05:49:44;;;;;;;13.70;7.90;;;;;;;;;;5116887;28;20252;-83
2021/06/05 05:52:11;;;;;;;12.20;7.80;;;;;;;;;;5116757;28;20207;-83
2021/06/05 05:54:38;;;;;;;9.25;8.02;;;;;;;;;;5117049;28;20219;-83
2021/06/05 05:57:08;;;;;;;7.65;6.85;;;;;;;;;;5116423;28;20554;-83
2021/06/05 05:59:34;;;;;;;8.10;7.35;;;;;;;;;;5116519;28;20219;-83
2021/06/05 06:02:01;;;;;;;8.18;7.45;;;;;;;;;;5116038;28;20204;-83
2021/06/05 06:04:28;;;;;;;9.43;8.48;;;;;;;;;;5116739;28;20223;-83
2021/06/05 06:06:55;;;;;;;7.97;7.28;;;;;;;;;;5116271;28;20212;-83
2021/06/05 06:09:22;;;;;;;9.00;8.20;;;;;;;;;;5116658;28;20203;-83
2021/06/05 06:11:49;;;;;;;7.53;6.93;;;;;;;;;;5116612;28;20204;-83
2021/06/05 06:14:18;;;;;;;7.75;7.15;;;;;;;;;;5116518;28;20224;-83
2021/06/05 06:16:45;;;;;;;7.90;7.20;;;;;;;;;;5120670;28;20200;-83
2021/06/05 06:19:13;;;;;;;7.97;7.38;;;;;;;;;;5114830;28;20268;-83
2021/06/05 06:21:40;;;;;;;9.32;8.40;;;;;;;;;;5116054;28;20625;-84
2021/06/05 06:24:09;;;;;;;9.07;8.27;;;;;;;;;;5116282;28;20265;-83
2021/06/05 06:26:37;;;;;;;8.90;8.10;;;;;;;;;;5116534;28;20192;-83
2021/06/05 06:29:11;;;;;;;8.50;7.70;;;;;;;;;;5116145;28;20203;-84
2021/06/05 06:31:41;;;;;;;8.52;7.82;;;;;;;;;;5116131;28;20199;-83
2021/06/05 06:34:08;;;;;;;8.57;7.78;;;;;;;;;;5115769;28;20626;-83
2021/06/05 06:36:36;;;;;;;8.88;8.07;;;;;;;;;;5116184;28;20200;-83
2021/06/05 06:39:04;;;;;;;8.85;8.07;;;;;;;;;;5115980;28;20717;-84
2021/06/05 06:41:32;;;;;;;8.85;8.02;;;;;;;;;;5116171;28;20199;-84
2021/06/05 06:44:03;;;;;;;8.95;8.23;;;;;;;;;;5116158;28;20231;-83
2021/06/05 06:46:35;;;;;;;9.45;8.55;;;;;;;;;;5116330;28;20192;-83
2021/06/05 06:49:04;;;;;;;8.52;7.70;;;;;;;;;;5115450;28;20200;-84
2021/06/05 06:51:31;;;;;;;8.52;7.68;;;;;;;;;;5115732;28;20203;-84
2021/06/05 06:53:58;;;;;;;9.05;8.25;;;;;;;;;;5115144;28;20289;-83
2021/06/05 06:56:25;;;;;;;9.23;8.32;;;;;;;;;;5116098;28;20786;-84
2021/06/05 06:58:52;;;;;;;10.10;7.93;;;;;;;;;;5115822;28;20183;-84
2021/06/05 07:01:20;;;;;;;10.48;7.50;;;;;;;;;;5115246;28;20204;-84
2021/06/05 07:03:47;;;;;;;8.40;7.63;;;;;;;;;;5115063;28;20279;-83
2021/06/05 07:06:16;;;;;;;7.93;7.22;;;;;;;;;;5115375;28;20244;-84
2021/06/05 07:08:44;;;;;;;8.65;7.97;;;;;;;;;;5115006;28;20691;-84
2021/06/05 07:11:14;;;;;;;8.70;7.97;;;;;;;;;;5115322;28;20229;-84
2021/06/05 07:13:40;;;;;;;9.93;8.50;;;;;;;;;;5115180;28;20199;-83
2021/06/05 07:16:08;;;;;;;7.45;6.85;;;;;;;;;;5115192;28;20199;-84
2021/06/05 07:18:37;;;;;;;10.00;8.88;;;;;;;;;;5115023;28;20229;-84
2021/06/05 07:21:06;;;;;;;9.30;8.50;;;;;;;;;;5114807;28;20227;-84
2021/06/05 07:23:37;;;;;;;8.02;7.32;;;;;;;;;;5115013;28;20264;-83
2021/06/05 07:26:10;;;;;;;8.57;7.70;;;;;;;;;;5114965;28;20203;-83
2021/06/05 07:28:40;;;;;;;7.70;7.10;;;;;;;;;;5114488;28;20215;-83
2021/06/05 07:31:09;;;;;;;8.00;7.40;;;;;;;;;;5115077;28;20195;-84
2021/06/05 07:33:37;;;;;;;7.57;6.88;;;;;;;;;;5114944;28;20204;-84
2021/06/05 07:36:05;;;;;;;7.82;7.22;;;;;;;;;;5115184;28;20207;-84
2021/06/05 07:38:35;;;;;;;7.32;6.72;;;;;;;;;;5114997;28;20215;-84
2021/06/05 07:41:02;;;;;;;8.07;7.30;;;;;;;;;;5115069;28;20208;-84
2021/06/05 07:43:30;;;;;;;8.65;7.85;;;;;;;;;;5114420;28;20249;-84
2021/06/05 07:45:58;;;;;;;8.02;7.35;;;;;;;;;;5114467;28;20229;-84
2021/06/05 07:48:27;;;;;;;9.68;7.00;;;;;;;;;;5114334;28;20666;-84
2021/06/05 07:50:54;;;;;;;8.35;7.75;;;;;;;;;;5114676;28;20673;-84
2021/06/05 07:53:21;;;;;;;7.78;7.28;;;;;;;;;;5114772;28;20203;-84
2021/06/05 07:55:49;;;;;;;8.90;8.18;;;;;;;;;;5114636;28;20212;-84
2021/06/05 07:58:17;;;;;;;8.27;7.57;;;;;;;;;;5114413;28;20640;-84
2021/06/05 08:00:43;;;;;;;8.13;7.53;;;;;;;;;;5114515;28;20230;-84
2021/06/05 08:03:11;;;;;;;9.45;8.35;;;;;;;;;;5114021;28;20227;-84
2021/06/05 08:05:39;;;;;;;9.18;8.48;;;;;;;;;;5114255;28;20227;-84
2021/06/05 08:08:09;;;;;;;8.90;8.18;;;;;;;;;;5112940;28;20700;-84
2021/06/05 08:10:39;;;;;;;8.15;7.35;;;;;;;;;;5114027;28;20199;-84
2021/06/05 08:13:07;;;;;;;9.10;8.40;;;;;;;;;;5113631;28;20200;-84
2021/06/05 08:15:37;;;;;;;6.80;6.28;;;;;;;;;;5113962;28;20716;-83
2021/06/05 08:18:06;;;;;;;8.73;7.70;;;;;;;;;;5113837;28;20191;-83
2021/06/05 08:20:37;;;;;;;8.45;7.47;;;;;;;;;;5113426;28;20223;-84
2021/06/05 08:23:06;;;;;;;7.43;6.88;;;;;;;;;;5114151;28;20210;-83
2021/06/05 08:25:34;;;;;;;6.88;6.40;;;;;;;;;;5113173;28;20255;-83
2021/06/05 08:28:01;;;;;;;7.07;6.53;;;;;;;;;;5113247;28;20603;-84
2021/06/05 08:30:34;;;;;;;6.03;5.60;;;;;;;;;;5113377;28;20199;-83
2021/06/05 08:33:01;;;;;;;7.85;7.25;;;;;;;;;;5113288;28;20194;-84
2021/06/05 08:35:28;;;;;;;6.90;6.30;;;;;;;;;;5112708;28;20231;-84
2021/06/05 08:37:55;;;;;;;7.22;6.53;;;;;;;;;;5113001;28;20188;-84
2021/06/05 08:40:26;;;;;;;5.80;5.40;;;;;;;;;;5112489;28;20226;-84
2021/06/05 08:42:54;;;;;;;7.15;6.60;;;;;;;;;;5113185;28;20195;-83
2021/06/05 08:45:25;;;;;;;6.30;5.60;;;;;;;;;;5113758;28;20324;-83
2021/06/05 08:47:53;;;;;;;6.00;5.47;;;;;;;;;;5113811;28;20236;-83
2021/06/05 08:50:26;;;;;;;6.60;5.88;;;;;;;;;;5112819;28;20658;-84
2021/06/05 08:52:57;;;;;;;7.72;7.13;;;;;;;;;;5114472;28;20200;-83
2021/06/05 08:55:30;;;;;;;6.47;5.97;;;;;;;;;;5114192;28;20283;-83
2021/06/05 08:58:01;;;;;;;6.43;5.85;;;;;;;;;;5114350;28;20608;-83
2021/06/05 09:00:31;;;;;;;8.00;7.35;;;;;;;;;;5113059;28;20220;-83
2021/06/05 09:03:04;;;;;;;6.93;6.32;;;;;;;;;;5113427;28;20231;-83
2021/06/05 09:05:35;;;;;;;6.45;5.78;;;;;;;;;;5114090;28;20219;-83
2021/06/05 09:08:05;;;;;;;7.97;7.18;;;;;;;;;;5114625;28;20756;-84
2021/06/05 09:10:37;;;;;;;5.90;5.40;;;;;;;;;;5114225;28;20207;-84
2021/06/05 09:13:03;;;;;;;6.35;5.75;;;;;;;;;;5112698;28;20203;-84
2021/06/05 09:15:33;;;;;;;6.55;6.05;;;;;;;;;;5112416;28;20230;-84
2021/06/05 09:18:05;;;;;;;6.88;6.38;;;;;;;;;;5112690;28;20279;-84
2021/06/05 09:20:38;;;;;;;6.70;6.20;;;;;;;;;;5113053;28;20303;-84
2021/06/05 09:23:26;;;;;;;6.03;5.18;;;;;;;;;;5113023;28;20199;-84
2021/06/05 09:25:54;;;;;;;5.10;4.70;;;;;;;;;;5112600;28;20294;-83
2021/06/05 09:28:27;;;;;;;5.72;5.22;;;;;;;;;;5113559;28;20191;-84
2021/06/05 09:31:13;;;;;;;6.25;5.65;;;;;;;;;;5113150;28;20200;-84
2021/06/05 09:33:42;;;;;;;6.70;6.20;;;;;;;;;;5112554;28;20674;-84
2021/06/05 09:36:32;;;;;;;6.00;5.60;;;;;;;;;;5112756;28;20198;-83
2021/06/05 09:39:03;;;;;;;5.25;4.85;;;;;;;;;;5112966;28;20208;-84
2021/06/05 09:41:42;;;;;;;4.97;4.65;;;;;;;;;;5113131;28;20281;-84
2021/06/05 09:44:22;;;;;;;4.90;4.60;;;;;;;;;;5112881;28;20223;-84
2021/06/05 09:46:59;;;;;;;8.70;4.32;;;;;;;;;;5112978;28;20199;-84
2021/06/05 09:49:32;;;;;;;5.32;4.93;;;;;;;;;;5112963;28;20206;-84
2021/06/05 09:52:09;;;;;;;5.13;4.78;;;;;;;;;;5113072;28;20207;-84
2021/06/05 09:54:39;;;;;;;5.63;5.18;;;;;;;;;;5116534;28;20255;-84
2021/06/05 09:57:26;;;;;;;5.43;5.03;;;;;;;;;;5116587;28;20208;-84
2021/06/05 10:00:07;;;;;;;5.22;4.90;;;;;;;;;;5116106;28;20200;-84
2021/06/05 10:02:35;;;;;;;5.00;4.70;;;;;;;;;;5116268;27;20236;-84
2021/06/05 10:05:16;;;;;;;5.28;4.70;;;;;;;;;;5116359;28;20260;-84
2021/06/05 10:07:43;;;;;;;4.97;4.68;;;;;;;;;;5116545;28;20199;-84
2021/06/05 10:10:23;;;;;;;8.00;4.80;;;;;;;;;;5116470;28;20208;-84
2021/06/05 10:12:52;;;;;;;4.22;3.90;;;;;;;;;;5115992;28;20187;-84
2021/06/05 10:15:23;;;;;;;4.45;4.15;;;;;;;;;;5116251;28;20644;-84
2021/06/05 10:17:55;;;;;;;4.50;4.05;;;;;;;;;;5116621;28;20658;-85
2021/06/05 10:20:39;;;;;;;9.98;4.60;;;;;;;;;;5116338;28;20226;-84
2021/06/05 10:23:06;;;;;;;3.83;3.53;;;;;;;;;;5116811;28;20187;-84
2021/06/05 10:25:36;;;;;;;4.78;4.47;;;;;;;;;;5115950;28;20247;-83
2021/06/05 10:28:07;;;;;;;4.10;3.78;;;;;;;;;;5116183;28;20213;-83
2021/06/05 10:30:53;;;;;;;4.88;4.38;;;;;;;;;;5116023;28;20210;-84
2021/06/05 10:33:35;;;;;;;8.70;4.40;;;;;;;;;;5116538;28;20195;-84
2021/06/05 10:36:08;;;;;;;4.43;4.13;;;;;;;;;;5116301;28;20195;-84
2021/06/05 10:38:41;;;;;;;4.07;3.78;;;;;;;;;;5116247;28;20208;-84
2021/06/05 10:41:17;;;;;;;4.70;3.92;;;;;;;;;;5115410;28;20588;-84
2021/06/05 10:43:44;;;;;;;6.00;4.30;;;;;;;;;;5115269;28;20211;-84
2021/06/05 10:46:23;;;;;;;10.55;4.68;;;;;;;;;;5115258;28;20210;-84
2021/06/05 10:48:51;;;;;;;6.18;5.68;;;;;;;;;;5116478;28;20608;-84
2021/06/05 10:51:24;;;;;;;5.63;5.13;;;;;;;;;;5115894;28;20196;-84
2021/06/05 10:54:02;;;;;;;3.97;3.78;;;;;;;;;;5115342;28;20577;-84
2021/06/05 10:56:38;;;;;;;5.10;4.07;;;;;;;;;;5115296;28;20661;-84
2021/06/05 10:59:08;;;;;;;6.18;5.57;;;;;;;;;;5115952;28;20207;-85
2021/06/05 11:01:48;;;;;;;4.95;4.63;;;;;;;;;;5115509;28;20223;-84
2021/06/05 11:04:55;;;;;;;5.22;4.43;;;;;;;;;;5114808;28;20834;-84
2021/06/05 11:07:33;;;;;;;6.15;5.57;;;;;;;;;;5081248;28;20199;-83
2021/06/05 11:10:05;;;;;;;6.93;6.10;;;;;;;;;;5116028;28;20207;-83
2021/06/05 11:12:52;;;;;;;6.40;5.78;;;;;;;;;;5116326;28;20691;-84
2021/06/05 11:15:58;;;;;;;6.20;5.60;;;;;;;;;;5116030;28;20215;-84
2021/06/05 11:18:35;;;;;;;5.90;5.50;;;;;;;;;;5115972;28;20202;-84
2021/06/05 11:21:39;;;;;;;5.93;5.43;;;;;;;;;;5115437;28;20309;-83
2021/06/05 11:24:18;;;;;;;7.07;6.20;;;;;;;;;;5115702;28;20231;-83
2021/06/05 11:26:48;;;;;;;5.90;5.43;;;;;;;;;;5115161;28;20518;-84
2021/06/05 11:29:52;;;;;;;5.15;4.75;;;;;;;;;;5115681;28;20214;-84
2021/06/05 11:32:50;;;;;;;5.30;5.00;;;;;;;;;;5114883;28;20199;-83
2021/06/05 11:35:41;;;;;;;6.35;5.90;;;;;;;;;;5114251;28;20223;-83
2021/06/05 11:38:12;;;;;;;6.20;5.80;;;;;;;;;;5115189;28;20204;-83
2021/06/05 11:41:08;;;;;;;5.82;5.15;;;;;;;;;;5114710;28;20203;-85
2021/06/05 11:43:51;;;;;;;5.75;5.22;;;;;;;;;;5114610;28;20251;-83
2021/06/05 11:46:45;;;;;;;6.30;5.90;;;;;;;;;;5115749;28;20198;-83
2021/06/05 11:49:50;;;;;;;6.15;5.63;;;;;;;;;;5106640;28;20653;-83
2021/06/05 11:52:43;;;;;;;6.13;5.60;;;;;;;;;;5114901;28;20196;-83
2021/06/05 11:55:29;;;;;;;5.57;5.28;;;;;;;;;;5115336;28;20245;-83
2021/06/05 11:58:30;;;;;;;6.25;5.65;;;;;;;;;;5114733;28;20214;-83
2021/06/05 12:01:09;;;;;;;6.22;5.80;;;;;;;;;;5111708;28;20223;-84
2021/06/05 12:03:47;;;;;;;6.18;5.68;;;;;;;;;;5114569;28;20231;-84
2021/06/05 12:06:21;;;;;;;6.75;6.20;;;;;;;;;;5115349;28;20202;-84
2021/06/05 12:08:59;;;;;;;7.75;5.95;;;;;;;;;;5114802;28;20206;-83
2021/06/05 12:11:36;;;;;;;6.25;5.80;;;;;;;;;;5115105;28;20260;-84
2021/06/05 12:14:15;;;;;;;7.13;6.53;;;;;;;;;;5114910;28;20237;-84
2021/06/05 12:16:52;;;;;;;6.40;5.78;;;;;;;;;;5114139;28;20207;-83
2021/06/05 12:19:30;;;;;;;7.03;6.53;;;;;;;;;;5114567;28;20290;-84
2021/06/05 12:22:11;;;;;;;7.32;6.05;;;;;;;;;;5114566;28;20219;-84
2021/06/05 12:24:39;;;;;;;10.00;6.25;;;;;;;;;;5114028;28;20587;-85
2021/06/05 12:27:07;;;;;;;10.07;4.82;;;;;;;;;;5113774;28;20191;-85
2021/06/05 12:29:38;;;;;;;3.05;2.78;;;;;;;;;;5113152;28;20569;-86
2021/06/05 12:32:17;;;;;;;3.33;2.40;;;;;;;;;;5113155;28;20206;-86
2021/06/05 12:34:45;;;;;;;6.18;3.03;;;;;;;;;;5113315;28;20224;-86
2021/06/05 12:37:24;;;;;;;3.38;2.30;;;;;;;;;;5113254;28;20590;-85
2021/06/05 12:39:55;;;;;;;3.75;2.80;;;;;;;;;;5113337;28;20198;-85
2021/06/05 12:42:26;;;;;;;4.03;2.80;;;;;;;;;;5113506;28;20697;-84
2021/06/05 12:44:56;;;;;;;5.45;4.38;;;;;;;;;;5113050;28;20219;-85
2021/06/05 12:47:29;;;;;;;8.73;4.10;;;;;;;;;;5113290;28;20797;-84
2021/06/05 12:49:57;;;;;;;4.60;4.20;;;;;;;;;;5113430;28;20666;-84
2021/06/05 12:52:28;;;;;;;5.25;4.78;;;;;;;;;;5113494;28;20195;-84
2021/06/05 12:55:16;;;;;;;5.45;4.95;;;;;;;;;;5113327;28;20220;-84
2021/06/05 12:57:45;;;;;;;11.07;5.90;;;;;;;;;;5113089;28;20199;-84
2021/06/05 13:00:35;;;;;;;7.28;6.53;;;;;;;;;;5113255;28;20267;-84
2021/06/05 13:03:41;;;;;;;9.75;8.63;;;;;;;;;;5113137;28;20646;-84
2021/06/05 13:06:26;;;;;;;11.52;10.45;;;;;;;;;;5030059;28;20621;-84
2021/06/05 13:09:04;;;;;;;16.80;15.25;;;;;;;;;;5028813;28;20623;-84
2021/06/05 13:11:46;;;;;;;16.25;14.75;;;;;;;;;;5085305;28;20211;-84
2021/06/05 13:14:27;;;;;;;16.77;15.13;;;;;;;;;;5112969;28;20261;-84
2021/06/05 13:17:28;;;;;;;17.02;15.43;;;;;;;;;;5113289;28;20206;-84
2021/06/05 13:20:11;;;;;;;16.15;14.55;;;;;;;;;;5113423;28;20253;-84
2021/06/05 13:22:39;;;;;;;16.38;14.88;;;;;;;;;;5112737;28;20226;-84
2021/06/05 13:25:12;;;;;;;16.52;14.93;;;;;;;;;;5113350;28;20230;-84
2021/06/05 13:27:41;;;;;;;15.98;14.57;;;;;;;;;;5114501;28;20211;-84
2021/06/05 13:30:23;;;;;;;15.90;14.30;;;;;;;;;;5116914;28;20256;-83
2021/06/05 13:32:54;;;;;;;15.70;14.30;;;;;;;;;;5117352;28;20729;-83
2021/06/05 13:35:26;;;;;;;14.82;13.52;;;;;;;;;;5117101;27;20226;-83
2021/06/05 13:38:00;;;;;;;16.23;14.50;;;;;;;;;;5116213;27;20200;-84
2021/06/05 13:40:27;;;;;;;15.23;13.93;;;;;;;;;;5116892;28;20611;-84
2021/06/05 13:42:55;;;;;;;14.82;13.50;;;;;;;;;;5116420;28;20225;-84
2021/06/05 13:45:27;;;;;;;15.98;14.57;;;;;;;;;;5116688;27;20284;-84
2021/06/05 13:47:56;;;;;;;16.45;14.85;;;;;;;;;;5116869;28;20200;-84
2021/06/05 13:50:26;;;;;;;16.98;15.02;;;;;;;;;;5116617;28;20203;-84
2021/06/05 13:52:54;;;;;;;15.85;14.32;;;;;;;;;;5116797;28;20200;-84
2021/06/05 13:55:29;;;;;;;14.98;13.57;;;;;;;;;;5116279;28;20276;-84
2021/06/05 13:57:57;;;;;;;14.23;13.02;;;;;;;;;;5116821;28;20251;-84
2021/06/05 14:00:27;;;;;;;18.30;16.42;;;;;;;;;;5116226;28;20204;-84
2021/06/05 14:02:56;;;;;;;15.60;13.90;;;;;;;;;;5116189;28;20697;-83
2021/06/05 14:05:23;;;;;;;15.75;14.27;;;;;;;;;;5116450;28;20705;-84
2021/06/05 14:07:50;;;;;;;13.63;12.38;;;;;;;;;;5118349;28;20212;-83
2021/06/05 14:10:19;;;;;;;14.02;12.73;;;;;;;;;;5116362;27;20669;-84
2021/06/05 14:12:46;;;;;;;13.82;12.52;;;;;;;;;;5116712;28;20572;-83
2021/06/05 14:15:18;;;;;;;13.32;12.02;;;;;;;;;;5116910;28;20633;-84
2021/06/05 14:17:46;;;;;;;12.68;11.50;;;;;;;;;;5116705;28;20196;-84
2021/06/05 14:20:15;;;;;;;14.13;12.77;;;;;;;;;;5116730;28;20188;-84
2021/06/05 14:22:42;;;;;;;12.32;11.13;;;;;;;;;;5116691;28;20231;-84
2021/06/05 14:25:13;;;;;;;11.45;10.35;;;;;;;;;;5116724;28;20283;-85
2021/06/05 14:27:40;;;;;;;11.07;10.07;;;;;;;;;;5116637;28;20723;-85
2021/06/05 14:30:13;;;;;;;10.88;9.65;;;;;;;;;;5116459;28;20208;-84
2021/06/05 14:32:40;;;;;;;11.68;10.68;;;;;;;;;;5116458;28;20626;-84
2021/06/05 14:35:08;;;;;;;10.05;9.15;;;;;;;;;;5116315;28;20218;-84
2021/06/05 14:37:37;;;;;;;10.38;9.57;;;;;;;;;;5116453;28;20696;-84
2021/06/05 14:40:05;;;;;;;9.68;8.80;;;;;;;;;;5115310;28;20204;-84
2021/06/05 14:42:32;;;;;;;10.30;9.40;;;;;;;;;;5116185;28;20211;-84
2021/06/05 14:44:59;;;;;;;10.60;9.60;;;;;;;;;;5116201;27;20215;-84
2021/06/05 14:47:27;;;;;;;12.43;11.23;;;;;;;;;;5116426;28;20210;-84
2021/06/05 14:49:54;;;;;;;11.55;10.43;;;;;;;;;;5116287;28;20195;-85
2021/06/05 14:52:23;;;;;;;11.35;10.35;;;;;;;;;;5116397;28;20196;-84
2021/06/05 14:54:52;;;;;;;12.40;11.10;;;;;;;;;;5116255;28;20223;-84
2021/06/05 14:57:20;;;;;;;11.50;10.40;;;;;;;;;;5116159;28;20662;-84
2021/06/05 14:59:47;;;;;;;17.25;12.43;;;;;;;;;;5116242;28;20195;-84
2021/06/05 15:02:17;;;;;;;12.85;11.65;;;;;;;;;;5115673;28;20276;-85
2021/06/05 15:04:44;;;;;;;13.35;12.13;;;;;;;;;;5115935;28;20292;-84